sensor_id;sensor_type;location;lat;lon;timestamp;P1;durP1;ratioP1;P2;durP2;ratioP2
58384;SDS011;44185;47.844;8.966;2023-03-08T00:01:24;15.10;;;5.80;;
58384;SDS011;44185;47.844;8.966;2023-03-08T00:03:50;15.98;;;6.40;;
58384;SDS011;44185;47.844;8.966;2023-03-08T00:06:16;16.88;;;6.38;;
58384;SDS011;44185;47.844;8.966;2023-03-08T00:08:41;11.77;;;5.53;;
58384;SDS011;44185;47.844;8.966;2023-03-08T00:11:07;13.48;;;6.13;;
58384;SDS011;44185;47.844;8.966;2023-03-08T00:13:34;12.93;;;6.20;;
58384;SDS011;44185;47.844;8.966;2023-03-08T00:16:00;13.93;;;5.90;;
58384;SDS011;44185;47.844;8.966;2023-03-08T00:18:28;16.17;;;6.45;;
58384;SDS011;44185;47.844;8.966;2023-03-08T00:20:57;15.00;;;6.05;;
58384;SDS011;44185;47.844;8.966;2023-03-08T00:23:23;15.63;;;6.43;;
58384;SDS011;44185;47.844;8.966;2023-03-08T00:25:50;12.68;;;5.28;;
58384;SDS011;44185;47.844;8.966;2023-03-08T00:28:16;14.32;;;5.47;;
58384;SDS011;44185;47.844;8.966;2023-03-08T00:30:41;14.20;;;5.80;;
58384;SDS011;44185;47.844;8.966;2023-03-08T00:33:06;14.82;;;6.57;;
58384;SDS011;44185;47.844;8.966;2023-03-08T00:35:33;15.23;;;5.70;;
58384;SDS011;44185;47.844;8.966;2023-03-08T00:37:59;12.93;;;6.18;;
58384;SDS011;44185;47.844;8.966;2023-03-08T00:40:24;14.45;;;6.10;;
58384;SDS011;44185;47.844;8.966;2023-03-08T00:42:50;17.50;;;6.10;;
58384;SDS011;44185;47.844;8.966;2023-03-08T00:45:15;15.27;;;5.97;;
58384;SDS011;44185;47.844;8.966;2023-03-08T00:47:41;12.82;;;5.50;;
58384;SDS011;44185;47.844;8.966;2023-03-08T00:50:07;18.08;;;6.07;;
58384;SDS011;44185;47.844;8.966;2023-03-08T00:52:35;15.10;;;6.38;;
58384;SDS011;44185;47.844;8.966;2023-03-08T00:55:00;17.55;;;6.25;;
58384;SDS011;44185;47.844;8.966;2023-03-08T00:57:26;13.30;;;5.65;;
58384;SDS011;44185;47.844;8.966;2023-03-08T00:59:51;17.60;;;6.40;;
58384;SDS011;44185;47.844;8.966;2023-03-08T01:02:16;15.68;;;6.13;;
58384;SDS011;44185;47.844;8.966;2023-03-08T01:04:42;14.13;;;6.45;;
58384;SDS011;44185;47.844;8.966;2023-03-08T01:07:07;13.05;;;5.65;;
58384;SDS011;44185;47.844;8.966;2023-03-08T01:09:35;15.02;;;6.35;;
58384;SDS011;44185;47.844;8.966;2023-03-08T01:12:00;18.38;;;6.65;;
58384;SDS011;44185;47.844;8.966;2023-03-08T01:14:26;16.83;;;7.07;;
58384;SDS011;44185;47.844;8.966;2023-03-08T01:16:51;16.98;;;6.82;;
58384;SDS011;44185;47.844;8.966;2023-03-08T01:19:16;16.25;;;6.85;;
58384;SDS011;44185;47.844;8.966;2023-03-08T01:21:42;13.38;;;6.70;;
58384;SDS011;44185;47.844;8.966;2023-03-08T01:24:07;16.20;;;5.65;;
58384;SDS011;44185;47.844;8.966;2023-03-08T01:26:35;12.25;;;5.72;;
58384;SDS011;44185;47.844;8.966;2023-03-08T01:29:00;13.63;;;5.85;;
58384;SDS011;44185;47.844;8.966;2023-03-08T01:31:27;12.35;;;5.35;;
58384;SDS011;44185;47.844;8.966;2023-03-08T01:33:53;14.38;;;5.82;;
58384;SDS011;44185;47.844;8.966;2023-03-08T01:36:20;14.80;;;5.57;;
58384;SDS011;44185;47.844;8.966;2023-03-08T01:38:47;15.95;;;6.38;;
58384;SDS011;44185;47.844;8.966;2023-03-08T01:41:14;9.90;;;4.18;;
58384;SDS011;44185;47.844;8.966;2023-03-08T01:43:43;15.73;;;6.53;;
58384;SDS011;44185;47.844;8.966;2023-03-08T01:46:25;15.02;;;6.50;;
58384;SDS011;44185;47.844;8.966;2023-03-08T01:48:53;14.27;;;6.15;;
58384;SDS011;44185;47.844;8.966;2023-03-08T01:51:25;15.52;;;6.95;;
58384;SDS011;44185;47.844;8.966;2023-03-08T01:53:55;13.98;;;6.53;;
58384;SDS011;44185;47.844;8.966;2023-03-08T01:56:23;15.52;;;6.55;;
58384;SDS011;44185;47.844;8.966;2023-03-08T01:58:51;12.82;;;6.20;;
58384;SDS011;44185;47.844;8.966;2023-03-08T02:01:17;17.42;;;6.90;;
58384;SDS011;44185;47.844;8.966;2023-03-08T02:03:44;14.32;;;6.50;;
58384;SDS011;44185;47.844;8.966;2023-03-08T02:06:11;13.63;;;6.13;;
58384;SDS011;44185;47.844;8.966;2023-03-08T02:08:37;16.35;;;6.90;;
58384;SDS011;44185;47.844;8.966;2023-03-08T02:11:04;17.08;;;7.38;;
58384;SDS011;44185;47.844;8.966;2023-03-08T02:13:30;8.60;;;4.57;;
58384;SDS011;44185;47.844;8.966;2023-03-08T02:15:57;16.25;;;7.10;;
58384;SDS011;44185;47.844;8.966;2023-03-08T02:20:52;14.75;;;6.47;;
58384;SDS011;44185;47.844;8.966;2023-03-08T02:23:19;17.60;;;7.25;;
58384;SDS011;44185;47.844;8.966;2023-03-08T02:25:48;19.00;;;7.47;;
58384;SDS011;44185;47.844;8.966;2023-03-08T02:30:41;16.02;;;6.55;;
58384;SDS011;44185;47.844;8.966;2023-03-08T02:33:06;16.27;;;6.97;;
58384;SDS011;44185;47.844;8.966;2023-03-08T02:35:32;15.38;;;6.60;;
58384;SDS011;44185;47.844;8.966;2023-03-08T02:37:57;17.80;;;7.85;;
58384;SDS011;44185;47.844;8.966;2023-03-08T02:40:24;14.27;;;6.70;;
58384;SDS011;44185;47.844;8.966;2023-03-08T02:42:50;16.08;;;7.03;;
58384;SDS011;44185;47.844;8.966;2023-03-08T02:45:15;16.95;;;7.20;;
58384;SDS011;44185;47.844;8.966;2023-03-08T02:47:41;16.70;;;7.40;;
58384;SDS011;44185;47.844;8.966;2023-03-08T02:50:06;18.10;;;7.00;;
58384;SDS011;44185;47.844;8.966;2023-03-08T02:52:34;17.13;;;7.15;;
58384;SDS011;44185;47.844;8.966;2023-03-08T02:54:59;14.63;;;6.72;;
58384;SDS011;44185;47.844;8.966;2023-03-08T02:57:26;17.67;;;7.43;;
58384;SDS011;44185;47.844;8.966;2023-03-08T02:59:51;17.48;;;7.43;;
58384;SDS011;44185;47.844;8.966;2023-03-08T03:02:17;18.60;;;7.43;;
58384;SDS011;44185;47.844;8.966;2023-03-08T03:04:42;18.35;;;6.93;;
58384;SDS011;44185;47.844;8.966;2023-03-08T03:07:08;17.30;;;6.75;;
58384;SDS011;44185;47.844;8.966;2023-03-08T03:09:33;21.00;;;7.78;;
58384;SDS011;44185;47.844;8.966;2023-03-08T03:11:59;17.48;;;7.55;;
58384;SDS011;44185;47.844;8.966;2023-03-08T03:14:27;15.93;;;7.07;;
58384;SDS011;44185;47.844;8.966;2023-03-08T03:16:52;19.48;;;8.18;;
58384;SDS011;44185;47.844;8.966;2023-03-08T03:19:18;17.08;;;7.68;;
58384;SDS011;44185;47.844;8.966;2023-03-08T03:21:43;17.70;;;7.43;;
58384;SDS011;44185;47.844;8.966;2023-03-08T03:24:08;16.88;;;7.75;;
58384;SDS011;44185;47.844;8.966;2023-03-08T03:26:34;19.48;;;7.57;;
58384;SDS011;44185;47.844;8.966;2023-03-08T03:28:59;17.02;;;7.22;;
58384;SDS011;44185;47.844;8.966;2023-03-08T03:31:26;16.08;;;6.80;;
58384;SDS011;44185;47.844;8.966;2023-03-08T03:33:52;17.08;;;7.40;;
58384;SDS011;44185;47.844;8.966;2023-03-08T03:36:18;16.85;;;7.40;;
58384;SDS011;44185;47.844;8.966;2023-03-08T03:38:46;17.42;;;6.78;;
58384;SDS011;44185;47.844;8.966;2023-03-08T03:41:12;17.38;;;7.93;;
58384;SDS011;44185;47.844;8.966;2023-03-08T03:43:39;17.65;;;7.63;;
58384;SDS011;44185;47.844;8.966;2023-03-08T03:46:06;17.77;;;7.28;;
58384;SDS011;44185;47.844;8.966;2023-03-08T03:48:36;16.37;;;7.80;;
58384;SDS011;44185;47.844;8.966;2023-03-08T03:51:02;18.23;;;6.85;;
58384;SDS011;44185;47.844;8.966;2023-03-08T03:53:28;16.83;;;7.70;;
58384;SDS011;44185;47.844;8.966;2023-03-08T03:55:55;18.65;;;7.55;;
58384;SDS011;44185;47.844;8.966;2023-03-08T03:58:26;17.00;;;6.72;;
58384;SDS011;44185;47.844;8.966;2023-03-08T04:00:51;17.02;;;7.03;;
58384;SDS011;44185;47.844;8.966;2023-03-08T04:03:17;17.55;;;7.40;;
58384;SDS011;44185;47.844;8.966;2023-03-08T04:05:44;17.98;;;7.65;;
58384;SDS011;44185;47.844;8.966;2023-03-08T04:08:09;16.83;;;7.40;;
58384;SDS011;44185;47.844;8.966;2023-03-08T04:10:34;19.05;;;7.47;;
58384;SDS011;44185;47.844;8.966;2023-03-08T04:13:00;17.83;;;6.70;;
58384;SDS011;44185;47.844;8.966;2023-03-08T04:15:25;17.22;;;7.60;;
58384;SDS011;44185;47.844;8.966;2023-03-08T04:17:51;16.98;;;7.07;;
58384;SDS011;44185;47.844;8.966;2023-03-08T04:20:16;19.13;;;8.00;;
58384;SDS011;44185;47.844;8.966;2023-03-08T04:22:43;14.80;;;7.47;;
58384;SDS011;44185;47.844;8.966;2023-03-08T04:25:09;17.77;;;8.18;;
58384;SDS011;44185;47.844;8.966;2023-03-08T04:27:34;16.73;;;7.13;;
58384;SDS011;44185;47.844;8.966;2023-03-08T04:30:00;19.30;;;8.40;;
58384;SDS011;44185;47.844;8.966;2023-03-08T04:32:25;21.38;;;7.70;;
58384;SDS011;44185;47.844;8.966;2023-03-08T04:34:51;19.50;;;8.05;;
58384;SDS011;44185;47.844;8.966;2023-03-08T04:37:16;17.58;;;7.43;;
58384;SDS011;44185;47.844;8.966;2023-03-08T04:39:43;21.00;;;7.72;;
58384;SDS011;44185;47.844;8.966;2023-03-08T04:42:08;16.80;;;7.45;;
58384;SDS011;44185;47.844;8.966;2023-03-08T04:44:34;16.88;;;7.63;;
58384;SDS011;44185;47.844;8.966;2023-03-08T04:46:59;17.10;;;7.72;;
58384;SDS011;44185;47.844;8.966;2023-03-08T04:49:25;21.13;;;8.40;;
58384;SDS011;44185;47.844;8.966;2023-03-08T04:51:51;16.70;;;7.38;;
58384;SDS011;44185;47.844;8.966;2023-03-08T04:54:16;16.65;;;7.05;;
58384;SDS011;44185;47.844;8.966;2023-03-08T04:56:43;20.80;;;7.65;;
58384;SDS011;44185;47.844;8.966;2023-03-08T04:59:08;18.98;;;8.07;;
58384;SDS011;44185;47.844;8.966;2023-03-08T05:01:34;16.90;;;8.00;;
58384;SDS011;44185;47.844;8.966;2023-03-08T05:03:59;16.30;;;6.97;;
58384;SDS011;44185;47.844;8.966;2023-03-08T05:06:25;16.85;;;7.53;;
58384;SDS011;44185;47.844;8.966;2023-03-08T05:08:51;16.13;;;7.72;;
58384;SDS011;44185;47.844;8.966;2023-03-08T05:11:18;18.15;;;7.75;;
58384;SDS011;44185;47.844;8.966;2023-03-08T05:13:46;17.05;;;7.07;;
58384;SDS011;44185;47.844;8.966;2023-03-08T05:16:12;16.88;;;7.88;;
58384;SDS011;44185;47.844;8.966;2023-03-08T05:18:38;15.07;;;6.78;;
58384;SDS011;44185;47.844;8.966;2023-03-08T05:21:04;17.67;;;7.45;;
58384;SDS011;44185;47.844;8.966;2023-03-08T05:23:31;17.90;;;7.43;;
58384;SDS011;44185;47.844;8.966;2023-03-08T05:25:58;18.02;;;7.40;;
58384;SDS011;44185;47.844;8.966;2023-03-08T05:28:26;20.90;;;8.55;;
58384;SDS011;44185;47.844;8.966;2023-03-08T05:31:00;18.73;;;8.55;;
58384;SDS011;44185;47.844;8.966;2023-03-08T05:33:26;18.33;;;7.88;;
58384;SDS011;44185;47.844;8.966;2023-03-08T05:35:51;19.25;;;8.23;;
58384;SDS011;44185;47.844;8.966;2023-03-08T05:38:17;18.27;;;7.65;;
58384;SDS011;44185;47.844;8.966;2023-03-08T05:40:42;18.15;;;7.15;;
58384;SDS011;44185;47.844;8.966;2023-03-08T05:43:08;21.00;;;9.00;;
58384;SDS011;44185;47.844;8.966;2023-03-08T05:45:33;18.92;;;8.55;;
58384;SDS011;44185;47.844;8.966;2023-03-08T05:48:00;22.55;;;7.70;;
58384;SDS011;44185;47.844;8.966;2023-03-08T05:50:25;19.70;;;7.90;;
58384;SDS011;44185;47.844;8.966;2023-03-08T05:52:51;20.05;;;9.25;;
58384;SDS011;44185;47.844;8.966;2023-03-08T05:55:16;19.42;;;8.52;;
58384;SDS011;44185;47.844;8.966;2023-03-08T05:57:42;23.40;;;9.52;;
58384;SDS011;44185;47.844;8.966;2023-03-08T06:00:08;17.27;;;8.50;;
58384;SDS011;44185;47.844;8.966;2023-03-08T06:02:34;18.70;;;7.95;;
58384;SDS011;44185;47.844;8.966;2023-03-08T06:05:01;19.20;;;7.75;;
58384;SDS011;44185;47.844;8.966;2023-03-08T06:07:26;18.40;;;8.20;;
58384;SDS011;44185;47.844;8.966;2023-03-08T06:09:52;19.33;;;8.63;;
58384;SDS011;44185;47.844;8.966;2023-03-08T06:12:17;18.25;;;8.25;;
58384;SDS011;44185;47.844;8.966;2023-03-08T06:14:42;17.33;;;8.48;;
58384;SDS011;44185;47.844;8.966;2023-03-08T06:17:08;19.33;;;8.50;;
58384;SDS011;44185;47.844;8.966;2023-03-08T06:19:33;19.25;;;9.25;;
58384;SDS011;44185;47.844;8.966;2023-03-08T06:22:00;19.02;;;9.10;;
58384;SDS011;44185;47.844;8.966;2023-03-08T06:24:26;16.10;;;8.55;;
58384;SDS011;44185;47.844;8.966;2023-03-08T06:26:51;19.55;;;9.43;;
58384;SDS011;44185;47.844;8.966;2023-03-08T06:29:16;23.02;;;9.35;;
58384;SDS011;44185;47.844;8.966;2023-03-08T06:31:42;22.02;;;10.45;;
58384;SDS011;44185;47.844;8.966;2023-03-08T06:34:07;24.10;;;10.40;;
58384;SDS011;44185;47.844;8.966;2023-03-08T06:36:33;21.63;;;10.30;;
58384;SDS011;44185;47.844;8.966;2023-03-08T06:38:59;24.90;;;10.93;;
58384;SDS011;44185;47.844;8.966;2023-03-08T06:41:25;24.77;;;11.10;;
58384;SDS011;44185;47.844;8.966;2023-03-08T06:43:50;32.40;;;11.13;;
58384;SDS011;44185;47.844;8.966;2023-03-08T06:46:16;35.40;;;12.05;;
58384;SDS011;44185;47.844;8.966;2023-03-08T06:48:43;28.70;;;11.70;;
58384;SDS011;44185;47.844;8.966;2023-03-08T06:51:09;35.28;;;12.15;;
58384;SDS011;44185;47.844;8.966;2023-03-08T06:53:34;33.20;;;12.18;;
58384;SDS011;44185;47.844;8.966;2023-03-08T06:56:01;33.20;;;12.15;;
58384;SDS011;44185;47.844;8.966;2023-03-08T06:58:27;34.22;;;11.30;;
58384;SDS011;44185;47.844;8.966;2023-03-08T07:00:53;27.55;;;11.15;;
58384;SDS011;44185;47.844;8.966;2023-03-08T07:03:18;32.15;;;11.65;;
58384;SDS011;44185;47.844;8.966;2023-03-08T07:05:44;35.13;;;12.20;;
58384;SDS011;44185;47.844;8.966;2023-03-08T07:08:09;29.20;;;10.93;;
58384;SDS011;44185;47.844;8.966;2023-03-08T07:10:35;31.30;;;11.70;;
58384;SDS011;44185;47.844;8.966;2023-03-08T07:13:02;29.60;;;13.40;;
58384;SDS011;44185;47.844;8.966;2023-03-08T07:15:28;34.03;;;15.38;;
58384;SDS011;44185;47.844;8.966;2023-03-08T07:17:54;38.25;;;17.42;;
58384;SDS011;44185;47.844;8.966;2023-03-08T07:20:20;40.42;;;16.58;;
58384;SDS011;44185;47.844;8.966;2023-03-08T07:22:47;31.45;;;11.73;;
58384;SDS011;44185;47.844;8.966;2023-03-08T07:25:13;22.90;;;10.85;;
58384;SDS011;44185;47.844;8.966;2023-03-08T07:27:40;32.03;;;11.65;;
58384;SDS011;44185;47.844;8.966;2023-03-08T07:30:08;28.88;;;11.07;;
58384;SDS011;44185;47.844;8.966;2023-03-08T07:32:35;29.73;;;11.23;;
58384;SDS011;44185;47.844;8.966;2023-03-08T07:35:00;24.35;;;10.73;;
58384;SDS011;44185;47.844;8.966;2023-03-08T07:37:26;26.55;;;9.40;;
58384;SDS011;44185;47.844;8.966;2023-03-08T07:39:52;21.98;;;9.68;;
58384;SDS011;44185;47.844;8.966;2023-03-08T07:42:17;26.55;;;9.27;;
58384;SDS011;44185;47.844;8.966;2023-03-08T07:44:43;17.45;;;9.05;;
58384;SDS011;44185;47.844;8.966;2023-03-08T07:47:10;21.73;;;9.38;;
58384;SDS011;44185;47.844;8.966;2023-03-08T07:49:35;19.08;;;9.07;;
58384;SDS011;44185;47.844;8.966;2023-03-08T07:52:01;22.05;;;8.60;;
58384;SDS011;44185;47.844;8.966;2023-03-08T07:54:26;20.42;;;8.50;;
58384;SDS011;44185;47.844;8.966;2023-03-08T07:56:52;20.60;;;7.63;;
58384;SDS011;44185;47.844;8.966;2023-03-08T07:59:18;19.52;;;7.80;;
58384;SDS011;44185;47.844;8.966;2023-03-08T08:01:44;17.40;;;8.07;;
58384;SDS011;44185;47.844;8.966;2023-03-08T08:04:11;16.80;;;7.53;;
58384;SDS011;44185;47.844;8.966;2023-03-08T08:06:36;19.63;;;8.68;;
58384;SDS011;44185;47.844;8.966;2023-03-08T08:09:02;19.17;;;7.97;;
58384;SDS011;44185;47.844;8.966;2023-03-08T08:11:28;18.42;;;7.70;;
58384;SDS011;44185;47.844;8.966;2023-03-08T08:13:53;11.20;;;4.95;;
58384;SDS011;44185;47.844;8.966;2023-03-08T08:16:19;10.70;;;4.82;;
58384;SDS011;44185;47.844;8.966;2023-03-08T08:18:44;21.08;;;8.18;;
58384;SDS011;44185;47.844;8.966;2023-03-08T08:21:12;19.02;;;7.15;;
58384;SDS011;44185;47.844;8.966;2023-03-08T08:23:39;14.43;;;7.30;;
58384;SDS011;44185;47.844;8.966;2023-03-08T08:26:05;14.25;;;6.50;;
58384;SDS011;44185;47.844;8.966;2023-03-08T08:28:32;14.80;;;6.72;;
58384;SDS011;44185;47.844;8.966;2023-03-08T08:30:59;16.20;;;7.18;;
58384;SDS011;44185;47.844;8.966;2023-03-08T08:33:26;11.05;;;5.50;;
58384;SDS011;44185;47.844;8.966;2023-03-08T08:35:52;9.40;;;4.65;;
58384;SDS011;44185;47.844;8.966;2023-03-08T08:38:19;13.77;;;5.07;;
58384;SDS011;44185;47.844;8.966;2023-03-08T08:40:44;9.73;;;4.57;;
58384;SDS011;44185;47.844;8.966;2023-03-08T08:43:10;4.30;;;3.40;;
58384;SDS011;44185;47.844;8.966;2023-03-08T08:45:35;6.85;;;3.45;;
58384;SDS011;44185;47.844;8.966;2023-03-08T08:48:01;5.85;;;3.58;;
58384;SDS011;44185;47.844;8.966;2023-03-08T08:50:26;5.10;;;3.33;;
58384;SDS011;44185;47.844;8.966;2023-03-08T08:52:52;6.85;;;3.20;;
58384;SDS011;44185;47.844;8.966;2023-03-08T08:55:18;7.75;;;3.45;;
58384;SDS011;44185;47.844;8.966;2023-03-08T08:57:44;3.45;;;2.33;;
58384;SDS011;44185;47.844;8.966;2023-03-08T09:00:10;6.72;;;4.20;;
58384;SDS011;44185;47.844;8.966;2023-03-08T09:02:36;9.43;;;3.47;;
58384;SDS011;44185;47.844;8.966;2023-03-08T09:05:01;4.80;;;3.40;;
58384;SDS011;44185;47.844;8.966;2023-03-08T09:07:27;7.95;;;3.00;;
58384;SDS011;44185;47.844;8.966;2023-03-08T09:09:52;4.57;;;2.80;;
58384;SDS011;44185;47.844;8.966;2023-03-08T09:12:20;7.85;;;3.40;;
58384;SDS011;44185;47.844;8.966;2023-03-08T09:14:45;8.80;;;3.50;;
58384;SDS011;44185;47.844;8.966;2023-03-08T09:17:11;2.30;;;1.98;;
58384;SDS011;44185;47.844;8.966;2023-03-08T09:19:36;4.38;;;2.70;;
58384;SDS011;44185;47.844;8.966;2023-03-08T09:22:02;8.40;;;3.78;;
58384;SDS011;44185;47.844;8.966;2023-03-08T09:24:28;3.90;;;2.78;;
58384;SDS011;44185;47.844;8.966;2023-03-08T09:26:53;23.60;;;12.88;;
58384;SDS011;44185;47.844;8.966;2023-03-08T09:29:20;5.10;;;2.75;;
58384;SDS011;44185;47.844;8.966;2023-03-08T09:31:45;4.45;;;2.55;;
58384;SDS011;44185;47.844;8.966;2023-03-08T09:34:11;3.67;;;2.38;;
58384;SDS011;44185;47.844;8.966;2023-03-08T09:36:37;3.08;;;2.60;;
58384;SDS011;44185;47.844;8.966;2023-03-08T09:39:04;4.63;;;2.97;;
58384;SDS011;44185;47.844;8.966;2023-03-08T09:47:20;3.33;;;2.17;;
58384;SDS011;44185;47.844;8.966;2023-03-08T09:49:52;5.03;;;2.30;;
58384;SDS011;44185;47.844;8.966;2023-03-08T09:52:24;5.93;;;2.13;;
58384;SDS011;44185;47.844;8.966;2023-03-08T09:54:54;4.95;;;2.05;;
58384;SDS011;44185;47.844;8.966;2023-03-08T09:57:22;2.83;;;1.55;;
58384;SDS011;44185;47.844;8.966;2023-03-08T09:59:52;2.42;;;1.98;;
58384;SDS011;44185;47.844;8.966;2023-03-08T10:02:23;3.08;;;2.28;;
58384;SDS011;44185;47.844;8.966;2023-03-08T10:05:08;4.63;;;1.98;;
58384;SDS011;44185;47.844;8.966;2023-03-08T10:07:46;4.65;;;2.30;;
58384;SDS011;44185;47.844;8.966;2023-03-08T10:10:22;4.18;;;2.20;;
58384;SDS011;44185;47.844;8.966;2023-03-08T10:13:00;2.40;;;2.03;;
58384;SDS011;44185;47.844;8.966;2023-03-08T10:15:35;2.38;;;2.10;;
58384;SDS011;44185;47.844;8.966;2023-03-08T10:18:07;3.22;;;2.30;;
58384;SDS011;44185;47.844;8.966;2023-03-08T10:20:39;2.10;;;1.80;;
58384;SDS011;44185;47.844;8.966;2023-03-08T10:23:09;2.75;;;2.05;;
58384;SDS011;44185;47.844;8.966;2023-03-08T10:25:38;3.13;;;1.88;;
58384;SDS011;44185;47.844;8.966;2023-03-08T10:28:13;5.15;;;2.63;;
58384;SDS011;44185;47.844;8.966;2023-03-08T10:30:43;3.47;;;2.38;;
58384;SDS011;44185;47.844;8.966;2023-03-08T10:33:11;2.67;;;1.90;;
58384;SDS011;44185;47.844;8.966;2023-03-08T10:35:48;3.05;;;2.30;;
58384;SDS011;44185;47.844;8.966;2023-03-08T10:38:18;2.92;;;1.90;;
58384;SDS011;44185;47.844;8.966;2023-03-08T10:40:44;4.93;;;2.63;;
58384;SDS011;44185;47.844;8.966;2023-03-08T10:43:14;2.17;;;1.98;;
58384;SDS011;44185;47.844;8.966;2023-03-08T10:45:44;2.50;;;1.92;;
58384;SDS011;44185;47.844;8.966;2023-03-08T10:48:20;2.20;;;1.83;;
58384;SDS011;44185;47.844;8.966;2023-03-08T10:50:56;4.30;;;1.88;;
58384;SDS011;44185;47.844;8.966;2023-03-08T10:53:22;4.72;;;2.40;;
58384;SDS011;44185;47.844;8.966;2023-03-08T10:55:49;4.82;;;2.58;;
58384;SDS011;44185;47.844;8.966;2023-03-08T10:58:30;2.72;;;1.38;;
58384;SDS011;44185;47.844;8.966;2023-03-08T11:01:00;1.83;;;1.73;;
58384;SDS011;44185;47.844;8.966;2023-03-08T11:03:27;3.13;;;1.93;;
58384;SDS011;44185;47.844;8.966;2023-03-08T11:05:54;1.83;;;1.73;;
58384;SDS011;44185;47.844;8.966;2023-03-08T11:08:22;4.68;;;2.33;;
58384;SDS011;44185;47.844;8.966;2023-03-08T11:10:58;4.15;;;2.30;;
58384;SDS011;44185;47.844;8.966;2023-03-08T11:13:26;2.70;;;2.25;;
58384;SDS011;44185;47.844;8.966;2023-03-08T11:15:55;4.93;;;2.40;;
58384;SDS011;44185;47.844;8.966;2023-03-08T11:18:34;2.75;;;2.00;;
58384;SDS011;44185;47.844;8.966;2023-03-08T11:21:09;2.60;;;1.88;;
58384;SDS011;44185;47.844;8.966;2023-03-08T11:23:42;3.45;;;2.13;;
58384;SDS011;44185;47.844;8.966;2023-03-08T11:26:14;4.65;;;2.38;;
58384;SDS011;44185;47.844;8.966;2023-03-08T11:28:49;1.50;;;1.40;;
58384;SDS011;44185;47.844;8.966;2023-03-08T11:31:28;3.60;;;1.70;;
58384;SDS011;44185;47.844;8.966;2023-03-08T11:34:14;1.67;;;1.58;;
58384;SDS011;44185;47.844;8.966;2023-03-08T11:36:59;2.95;;;1.55;;
58384;SDS011;44185;47.844;8.966;2023-03-08T11:39:31;4.20;;;2.13;;
58384;SDS011;44185;47.844;8.966;2023-03-08T11:41:59;2.47;;;1.83;;
58384;SDS011;44185;47.844;8.966;2023-03-08T11:44:40;2.45;;;1.92;;
58384;SDS011;44185;47.844;8.966;2023-03-08T11:47:28;2.88;;;2.22;;
58384;SDS011;44185;47.844;8.966;2023-03-08T11:50:08;4.13;;;2.05;;
58384;SDS011;44185;47.844;8.966;2023-03-08T11:52:42;5.18;;;2.17;;
58384;SDS011;44185;47.844;8.966;2023-03-08T11:58:17;2.53;;;2.00;;
58384;SDS011;44185;47.844;8.966;2023-03-08T12:00:49;4.47;;;2.22;;
58384;SDS011;44185;47.844;8.966;2023-03-08T12:03:19;3.05;;;2.05;;
58384;SDS011;44185;47.844;8.966;2023-03-08T12:05:49;2.30;;;1.70;;
58384;SDS011;44185;47.844;8.966;2023-03-08T12:08:20;2.67;;;1.92;;
58384;SDS011;44185;47.844;8.966;2023-03-08T12:10:50;2.90;;;2.25;;
58384;SDS011;44185;47.844;8.966;2023-03-08T12:13:21;2.42;;;2.17;;
58384;SDS011;44185;47.844;8.966;2023-03-08T12:15:53;3.03;;;2.25;;
58384;SDS011;44185;47.844;8.966;2023-03-08T12:18:23;2.85;;;2.13;;
58384;SDS011;44185;47.844;8.966;2023-03-08T12:20:56;2.20;;;1.92;;
58384;SDS011;44185;47.844;8.966;2023-03-08T12:23:27;1.83;;;1.73;;
58384;SDS011;44185;47.844;8.966;2023-03-08T12:26:02;2.15;;;1.50;;
58384;SDS011;44185;47.844;8.966;2023-03-08T12:28:32;1.63;;;1.52;;
58384;SDS011;44185;47.844;8.966;2023-03-08T12:31:07;3.00;;;1.67;;
58384;SDS011;44185;47.844;8.966;2023-03-08T12:33:44;1.50;;;1.40;;
58384;SDS011;44185;47.844;8.966;2023-03-08T12:36:10;1.08;;;1.05;;
58384;SDS011;44185;47.844;8.966;2023-03-08T12:38:36;3.00;;;2.03;;
58384;SDS011;44185;47.844;8.966;2023-03-08T12:41:04;2.80;;;2.00;;
58384;SDS011;44185;47.844;8.966;2023-03-08T12:43:43;2.80;;;1.70;;
58384;SDS011;44185;47.844;8.966;2023-03-08T12:46:09;2.25;;;1.65;;
58384;SDS011;44185;47.844;8.966;2023-03-08T12:48:36;3.10;;;2.08;;
58384;SDS011;44185;47.844;8.966;2023-03-08T12:51:18;3.50;;;2.10;;
58384;SDS011;44185;47.844;8.966;2023-03-08T12:53:54;4.80;;;2.53;;
58384;SDS011;44185;47.844;8.966;2023-03-08T12:56:22;1.60;;;1.50;;
58384;SDS011;44185;47.844;8.966;2023-03-08T12:58:51;1.93;;;1.50;;
58384;SDS011;44185;47.844;8.966;2023-03-08T13:01:22;1.65;;;0.90;;
58384;SDS011;44185;47.844;8.966;2023-03-08T13:03:52;1.33;;;1.20;;
58384;SDS011;44185;47.844;8.966;2023-03-08T13:06:32;1.70;;;0.98;;
58384;SDS011;44185;47.844;8.966;2023-03-08T13:09:20;2.38;;;1.27;;
58384;SDS011;44185;47.844;8.966;2023-03-08T13:11:50;1.33;;;1.33;;
58384;SDS011;44185;47.844;8.966;2023-03-08T13:14:25;2.33;;;2.13;;
58384;SDS011;44185;47.844;8.966;2023-03-08T13:17:01;1.48;;;1.35;;
58384;SDS011;44185;47.844;8.966;2023-03-08T13:19:46;1.98;;;1.42;;
58384;SDS011;44185;47.844;8.966;2023-03-08T13:22:17;1.55;;;1.42;;
58384;SDS011;44185;47.844;8.966;2023-03-08T13:24:48;2.55;;;1.45;;
58384;SDS011;44185;47.844;8.966;2023-03-08T13:27:20;1.65;;;1.55;;
58384;SDS011;44185;47.844;8.966;2023-03-08T13:30:06;4.18;;;2.47;;
58384;SDS011;44185;47.844;8.966;2023-03-08T13:32:41;1.83;;;1.70;;
58384;SDS011;44185;47.844;8.966;2023-03-08T13:35:10;2.95;;;1.92;;
58384;SDS011;44185;47.844;8.966;2023-03-08T13:37:40;2.58;;;1.60;;
58384;SDS011;44185;47.844;8.966;2023-03-08T13:40:13;4.63;;;1.80;;
58384;SDS011;44185;47.844;8.966;2023-03-08T13:42:51;4.38;;;2.10;;
58384;SDS011;44185;47.844;8.966;2023-03-08T13:45:17;3.70;;;2.10;;
58384;SDS011;44185;47.844;8.966;2023-03-08T13:47:43;4.38;;;2.35;;
58384;SDS011;44185;47.844;8.966;2023-03-08T13:50:13;5.85;;;3.13;;
58384;SDS011;44185;47.844;8.966;2023-03-08T13:52:44;4.50;;;2.38;;
58384;SDS011;44185;47.844;8.966;2023-03-08T13:55:11;7.15;;;2.80;;
58384;SDS011;44185;47.844;8.966;2023-03-08T13:57:45;5.00;;;2.22;;
58384;SDS011;44185;47.844;8.966;2023-03-08T14:00:19;3.75;;;1.92;;
58384;SDS011;44185;47.844;8.966;2023-03-08T14:02:53;2.72;;;1.75;;
58384;SDS011;44185;47.844;8.966;2023-03-08T14:05:19;5.40;;;2.50;;
58384;SDS011;44185;47.844;8.966;2023-03-08T14:07:55;4.82;;;2.40;;
58384;SDS011;44185;47.844;8.966;2023-03-08T14:10:22;10.10;;;4.32;;
58384;SDS011;44185;47.844;8.966;2023-03-08T14:15:17;2.58;;;2.13;;
58384;SDS011;44185;47.844;8.966;2023-03-08T14:17:43;9.60;;;6.00;;
58384;SDS011;44185;47.844;8.966;2023-03-08T14:20:15;3.53;;;2.58;;
58384;SDS011;44185;47.844;8.966;2023-03-08T14:22:45;5.50;;;4.05;;
58384;SDS011;44185;47.844;8.966;2023-03-08T14:25:20;2.40;;;2.20;;
58384;SDS011;44185;47.844;8.966;2023-03-08T14:27:48;5.47;;;3.10;;
58384;SDS011;44185;47.844;8.966;2023-03-08T14:30:15;3.47;;;2.20;;
58384;SDS011;44185;47.844;8.966;2023-03-08T14:32:53;3.42;;;1.98;;
58384;SDS011;44185;47.844;8.966;2023-03-08T14:35:21;2.40;;;1.77;;
58384;SDS011;44185;47.844;8.966;2023-03-08T14:37:49;7.47;;;2.80;;
58384;SDS011;44185;47.844;8.966;2023-03-08T14:40:18;7.68;;;3.22;;
58384;SDS011;44185;47.844;8.966;2023-03-08T14:42:50;2.55;;;2.20;;
58384;SDS011;44185;47.844;8.966;2023-03-08T14:45:18;5.03;;;3.30;;
58384;SDS011;44185;47.844;8.966;2023-03-08T14:47:47;5.18;;;3.08;;
58384;SDS011;44185;47.844;8.966;2023-03-08T14:50:17;2.83;;;2.60;;
58384;SDS011;44185;47.844;8.966;2023-03-08T14:55:18;3.85;;;2.95;;
58384;SDS011;44185;47.844;8.966;2023-03-08T14:57:47;3.47;;;2.30;;
58384;SDS011;44185;47.844;8.966;2023-03-08T15:00:13;3.60;;;2.60;;
58384;SDS011;44185;47.844;8.966;2023-03-08T15:02:40;6.03;;;4.95;;